sensor_id;sensor_type;location;lat;lon;timestamp;P1;durP1;ratioP1;P2;durP2;ratioP2
12482;SDS011;6306;47.134;15.344;2022-10-16T00:00:31;38.90;;;25.20;;
12482;SDS011;6306;47.134;15.344;2022-10-16T00:02:57;41.80;;;24.43;;
12482;SDS011;6306;47.134;15.344;2022-10-16T00:05:23;36.27;;;24.40;;
12482;SDS011;6306;47.134;15.344;2022-10-16T00:07:49;35.87;;;24.33;;
12482;SDS011;6306;47.134;15.344;2022-10-16T00:10:15;30.53;;;25.30;;
12482;SDS011;6306;47.134;15.344;2022-10-16T00:12:41;31.10;;;22.60;;
12482;SDS011;6306;47.134;15.344;2022-10-16T00:15:07;38.13;;;23.80;;
12482;SDS011;6306;47.134;15.344;2022-10-16T00:17:34;32.90;;;24.03;;
12482;SDS011;6306;47.134;15.344;2022-10-16T00:20:00;35.70;;;24.70;;
12482;SDS011;6306;47.134;15.344;2022-10-16T00:22:26;37.90;;;25.80;;
12482;SDS011;6306;47.134;15.344;2022-10-16T00:24:52;33.37;;;22.20;;
12482;SDS011;6306;47.134;15.344;2022-10-16T00:27:18;33.13;;;24.17;;
12482;SDS011;6306;47.134;15.344;2022-10-16T00:29:44;37.90;;;23.07;;
12482;SDS011;6306;47.134;15.344;2022-10-16T00:32:10;30.47;;;22.80;;
12482;SDS011;6306;47.134;15.344;2022-10-16T00:34:36;33.47;;;23.67;;
12482;SDS011;6306;47.134;15.344;2022-10-16T00:37:02;34.63;;;24.57;;
12482;SDS011;6306;47.134;15.344;2022-10-16T00:39:28;35.03;;;25.53;;
12482;SDS011;6306;47.134;15.344;2022-10-16T00:41:54;35.13;;;23.97;;
12482;SDS011;6306;47.134;15.344;2022-10-16T00:47:07;34.10;;;23.27;;
12482;SDS011;6306;47.134;15.344;2022-10-16T00:49:33;33.60;;;22.97;;
12482;SDS011;6306;47.134;15.344;2022-10-16T00:51:59;32.67;;;21.47;;
12482;SDS011;6306;47.134;15.344;2022-10-16T00:54:26;32.60;;;22.20;;
12482;SDS011;6306;47.134;15.344;2022-10-16T00:56:53;33.80;;;23.00;;
12482;SDS011;6306;47.134;15.344;2022-10-16T00:59:21;32.37;;;22.97;;
12482;SDS011;6306;47.134;15.344;2022-10-16T01:01:49;28.90;;;21.23;;
12482;SDS011;6306;47.134;15.344;2022-10-16T01:04:15;30.20;;;21.47;;
12482;SDS011;6306;47.134;15.344;2022-10-16T01:09:59;32.60;;;23.13;;
12482;SDS011;6306;47.134;15.344;2022-10-16T01:12:10;36.47;;;23.37;;
12482;SDS011;6306;47.134;15.344;2022-10-16T01:17:15;40.27;;;22.90;;
12482;SDS011;6306;47.134;15.344;2022-10-16T01:22:09;37.40;;;22.80;;
12482;SDS011;6306;47.134;15.344;2022-10-16T01:24:39;31.50;;;19.90;;
12482;SDS011;6306;47.134;15.344;2022-10-16T01:34:52;26.93;;;20.37;;
12482;SDS011;6306;47.134;15.344;2022-10-16T01:37:22;32.30;;;20.80;;
12482;SDS011;6306;47.134;15.344;2022-10-16T01:39:50;28.00;;;20.70;;
12482;SDS011;6306;47.134;15.344;2022-10-16T01:42:21;31.77;;;20.53;;
12482;SDS011;6306;47.134;15.344;2022-10-16T01:44:48;30.57;;;21.03;;
12482;SDS011;6306;47.134;15.344;2022-10-16T01:47:15;26.40;;;19.77;;
12482;SDS011;6306;47.134;15.344;2022-10-16T01:49:43;33.13;;;21.57;;
12482;SDS011;6306;47.134;15.344;2022-10-16T01:52:11;34.00;;;19.90;;
12482;SDS011;6306;47.134;15.344;2022-10-16T01:54:39;28.40;;;19.10;;
12482;SDS011;6306;47.134;15.344;2022-10-16T01:57:07;33.53;;;17.93;;
12482;SDS011;6306;47.134;15.344;2022-10-16T01:59:35;28.93;;;20.20;;
12482;SDS011;6306;47.134;15.344;2022-10-16T02:02:04;32.77;;;22.10;;
12482;SDS011;6306;47.134;15.344;2022-10-16T02:07:17;26.83;;;18.57;;
12482;SDS011;6306;47.134;15.344;2022-10-16T02:09:43;32.40;;;20.00;;
12482;SDS011;6306;47.134;15.344;2022-10-16T02:12:43;33.27;;;19.13;;
12482;SDS011;6306;47.134;15.344;2022-10-16T02:15:02;28.90;;;20.30;;
12482;SDS011;6306;47.134;15.344;2022-10-16T02:17:28;32.20;;;21.70;;
12482;SDS011;6306;47.134;15.344;2022-10-16T02:19:54;32.03;;;22.07;;
12482;SDS011;6306;47.134;15.344;2022-10-16T02:22:30;26.20;;;18.17;;
12482;SDS011;6306;47.134;15.344;2022-10-16T02:25:10;29.77;;;18.63;;
12482;SDS011;6306;47.134;15.344;2022-10-16T02:30:05;24.27;;;17.67;;
12482;SDS011;6306;47.134;15.344;2022-10-16T02:32:33;27.40;;;18.83;;
12482;SDS011;6306;47.134;15.344;2022-10-16T02:35:00;27.43;;;18.60;;
12482;SDS011;6306;47.134;15.344;2022-10-16T02:37:27;25.87;;;18.57;;
12482;SDS011;6306;47.134;15.344;2022-10-16T02:39:54;26.50;;;20.57;;
12482;SDS011;6306;47.134;15.344;2022-10-16T02:42:20;28.90;;;19.10;;
12482;SDS011;6306;47.134;15.344;2022-10-16T02:44:46;23.67;;;18.20;;
12482;SDS011;6306;47.134;15.344;2022-10-16T02:47:12;28.63;;;17.17;;
12482;SDS011;6306;47.134;15.344;2022-10-16T02:49:38;23.60;;;17.80;;
12482;SDS011;6306;47.134;15.344;2022-10-16T02:52:04;26.87;;;17.60;;
12482;SDS011;6306;47.134;15.344;2022-10-16T02:54:30;23.43;;;16.83;;
12482;SDS011;6306;47.134;15.344;2022-10-16T02:56:56;31.00;;;19.60;;
12482;SDS011;6306;47.134;15.344;2022-10-16T02:59:22;32.80;;;18.70;;
12482;SDS011;6306;47.134;15.344;2022-10-16T03:01:48;23.53;;;17.23;;
12482;SDS011;6306;47.134;15.344;2022-10-16T03:04:14;24.40;;;16.63;;
12482;SDS011;6306;47.134;15.344;2022-10-16T03:06:40;26.27;;;18.03;;
12482;SDS011;6306;47.134;15.344;2022-10-16T03:09:06;26.60;;;16.57;;
12482;SDS011;6306;47.134;15.344;2022-10-16T03:11:32;40.80;;;17.70;;
12482;SDS011;6306;47.134;15.344;2022-10-16T03:13:58;26.27;;;17.07;;
12482;SDS011;6306;47.134;15.344;2022-10-16T03:16:25;26.60;;;17.63;;
12482;SDS011;6306;47.134;15.344;2022-10-16T03:18:51;38.30;;;18.47;;
12482;SDS011;6306;47.134;15.344;2022-10-16T03:21:17;27.80;;;18.03;;
12482;SDS011;6306;47.134;15.344;2022-10-16T03:23:43;30.53;;;17.77;;
12482;SDS011;6306;47.134;15.344;2022-10-16T03:26:09;28.33;;;16.87;;
12482;SDS011;6306;47.134;15.344;2022-10-16T03:28:35;28.33;;;18.77;;
12482;SDS011;6306;47.134;15.344;2022-10-16T03:31:01;24.43;;;19.23;;
12482;SDS011;6306;47.134;15.344;2022-10-16T03:33:27;27.77;;;17.53;;
12482;SDS011;6306;47.134;15.344;2022-10-16T03:35:53;29.67;;;16.90;;
12482;SDS011;6306;47.134;15.344;2022-10-16T03:38:20;24.60;;;15.57;;
12482;SDS011;6306;47.134;15.344;2022-10-16T03:40:46;31.30;;;18.30;;
12482;SDS011;6306;47.134;15.344;2022-10-16T03:43:12;24.90;;;16.33;;
12482;SDS011;6306;47.134;15.344;2022-10-16T03:45:38;26.30;;;16.90;;
12482;SDS011;6306;47.134;15.344;2022-10-16T03:48:05;27.07;;;17.23;;
12482;SDS011;6306;47.134;15.344;2022-10-16T03:50:31;23.63;;;17.17;;
12482;SDS011;6306;47.134;15.344;2022-10-16T03:52:57;27.47;;;18.47;;
12482;SDS011;6306;47.134;15.344;2022-10-16T03:55:23;26.20;;;17.93;;
12482;SDS011;6306;47.134;15.344;2022-10-16T03:57:49;30.33;;;19.27;;
12482;SDS011;6306;47.134;15.344;2022-10-16T04:00:15;23.90;;;16.80;;
12482;SDS011;6306;47.134;15.344;2022-10-16T04:02:41;23.37;;;16.63;;
12482;SDS011;6306;47.134;15.344;2022-10-16T04:05:07;21.77;;;15.10;;
12482;SDS011;6306;47.134;15.344;2022-10-16T04:07:33;29.07;;;16.53;;
12482;SDS011;6306;47.134;15.344;2022-10-16T04:09:59;26.70;;;18.60;;
12482;SDS011;6306;47.134;15.344;2022-10-16T04:12:25;26.40;;;16.97;;
12482;SDS011;6306;47.134;15.344;2022-10-16T04:14:52;27.30;;;17.73;;
12482;SDS011;6306;47.134;15.344;2022-10-16T04:17:18;25.53;;;16.87;;
12482;SDS011;6306;47.134;15.344;2022-10-16T04:19:44;23.63;;;16.63;;
12482;SDS011;6306;47.134;15.344;2022-10-16T04:22:10;21.73;;;15.93;;
12482;SDS011;6306;47.134;15.344;2022-10-16T04:24:36;23.67;;;17.03;;
12482;SDS011;6306;47.134;15.344;2022-10-16T04:27:02;22.90;;;15.10;;
12482;SDS011;6306;47.134;15.344;2022-10-16T04:29:28;24.00;;;15.60;;
12482;SDS011;6306;47.134;15.344;2022-10-16T04:31:54;31.67;;;16.60;;
12482;SDS011;6306;47.134;15.344;2022-10-16T04:34:20;26.53;;;16.87;;
12482;SDS011;6306;47.134;15.344;2022-10-16T04:36:47;24.07;;;16.40;;
12482;SDS011;6306;47.134;15.344;2022-10-16T04:39:14;27.10;;;17.17;;
12482;SDS011;6306;47.134;15.344;2022-10-16T04:41:40;22.80;;;14.87;;
12482;SDS011;6306;47.134;15.344;2022-10-16T04:44:06;25.70;;;17.83;;
12482;SDS011;6306;47.134;15.344;2022-10-16T04:46:33;24.23;;;16.13;;
12482;SDS011;6306;47.134;15.344;2022-10-16T04:48:59;24.27;;;15.30;;
12482;SDS011;6306;47.134;15.344;2022-10-16T04:51:25;20.70;;;14.50;;
12482;SDS011;6306;47.134;15.344;2022-10-16T04:53:52;26.63;;;15.20;;
12482;SDS011;6306;47.134;15.344;2022-10-16T04:56:19;24.77;;;15.63;;
12482;SDS011;6306;47.134;15.344;2022-10-16T04:58:46;25.90;;;16.03;;
12482;SDS011;6306;47.134;15.344;2022-10-16T05:01:12;30.57;;;19.33;;
12482;SDS011;6306;47.134;15.344;2022-10-16T05:03:38;28.93;;;16.90;;
12482;SDS011;6306;47.134;15.344;2022-10-16T05:06:07;27.40;;;19.17;;
12482;SDS011;6306;47.134;15.344;2022-10-16T05:08:33;30.03;;;16.73;;
12482;SDS011;6306;47.134;15.344;2022-10-16T05:10:59;24.50;;;16.00;;
12482;SDS011;6306;47.134;15.344;2022-10-16T05:13:25;31.20;;;18.37;;
12482;SDS011;6306;47.134;15.344;2022-10-16T05:15:51;22.53;;;15.83;;
12482;SDS011;6306;47.134;15.344;2022-10-16T05:18:17;21.07;;;15.97;;
12482;SDS011;6306;47.134;15.344;2022-10-16T05:20:43;21.93;;;15.70;;
12482;SDS011;6306;47.134;15.344;2022-10-16T05:23:10;21.60;;;14.87;;
12482;SDS011;6306;47.134;15.344;2022-10-16T05:25:36;23.53;;;15.07;;
12482;SDS011;6306;47.134;15.344;2022-10-16T05:28:02;21.90;;;14.93;;
12482;SDS011;6306;47.134;15.344;2022-10-16T05:30:28;26.23;;;17.23;;
12482;SDS011;6306;47.134;15.344;2022-10-16T05:32:54;30.13;;;16.77;;
12482;SDS011;6306;47.134;15.344;2022-10-16T05:35:21;23.43;;;17.60;;
12482;SDS011;6306;47.134;15.344;2022-10-16T05:37:47;24.13;;;15.10;;
12482;SDS011;6306;47.134;15.344;2022-10-16T05:40:13;25.03;;;15.70;;
12482;SDS011;6306;47.134;15.344;2022-10-16T05:42:40;24.23;;;15.03;;
12482;SDS011;6306;47.134;15.344;2022-10-16T05:45:07;23.63;;;16.23;;
12482;SDS011;6306;47.134;15.344;2022-10-16T05:47:34;22.07;;;16.00;;
12482;SDS011;6306;47.134;15.344;2022-10-16T05:50:00;30.00;;;17.43;;
12482;SDS011;6306;47.134;15.344;2022-10-16T05:52:26;25.10;;;16.67;;
12482;SDS011;6306;47.134;15.344;2022-10-16T05:54:52;24.57;;;16.10;;
12482;SDS011;6306;47.134;15.344;2022-10-16T05:57:18;22.90;;;14.50;;
12482;SDS011;6306;47.134;15.344;2022-10-16T05:59:44;22.97;;;15.53;;
12482;SDS011;6306;47.134;15.344;2022-10-16T06:02:14;26.60;;;16.27;;
12482;SDS011;6306;47.134;15.344;2022-10-16T06:04:40;22.00;;;15.23;;
12482;SDS011;6306;47.134;15.344;2022-10-16T06:07:06;27.03;;;16.20;;
12482;SDS011;6306;47.134;15.344;2022-10-16T06:09:32;25.40;;;16.63;;
12482;SDS011;6306;47.134;15.344;2022-10-16T06:11:58;24.50;;;13.90;;
12482;SDS011;6306;47.134;15.344;2022-10-16T06:14:24;23.17;;;14.87;;
12482;SDS011;6306;47.134;15.344;2022-10-16T06:16:50;26.60;;;17.27;;
12482;SDS011;6306;47.134;15.344;2022-10-16T06:19:16;19.80;;;15.20;;
12482;SDS011;6306;47.134;15.344;2022-10-16T06:21:43;23.50;;;15.10;;
12482;SDS011;6306;47.134;15.344;2022-10-16T06:24:09;25.87;;;17.60;;
12482;SDS011;6306;47.134;15.344;2022-10-16T06:26:35;33.43;;;15.43;;
12482;SDS011;6306;47.134;15.344;2022-10-16T06:29:01;25.10;;;15.67;;
12482;SDS011;6306;47.134;15.344;2022-10-16T06:31:28;26.23;;;16.60;;
12482;SDS011;6306;47.134;15.344;2022-10-16T06:33:56;25.00;;;16.60;;
12482;SDS011;6306;47.134;15.344;2022-10-16T06:36:22;28.17;;;18.60;;
12482;SDS011;6306;47.134;15.344;2022-10-16T06:38:49;27.73;;;17.03;;
12482;SDS011;6306;47.134;15.344;2022-10-16T06:41:16;23.60;;;16.00;;
12482;SDS011;6306;47.134;15.344;2022-10-16T06:43:43;21.40;;;15.43;;
12482;SDS011;6306;47.134;15.344;2022-10-16T06:46:10;26.43;;;15.43;;
12482;SDS011;6306;47.134;15.344;2022-10-16T06:48:37;20.27;;;14.53;;
12482;SDS011;6306;47.134;15.344;2022-10-16T06:51:08;23.87;;;15.37;;
12482;SDS011;6306;47.134;15.344;2022-10-16T06:53:35;22.33;;;15.00;;
12482;SDS011;6306;47.134;15.344;2022-10-16T06:56:14;19.50;;;15.03;;
12482;SDS011;6306;47.134;15.344;2022-10-16T06:58:42;26.40;;;13.93;;
12482;SDS011;6306;47.134;15.344;2022-10-16T07:01:08;23.43;;;15.50;;
12482;SDS011;6306;47.134;15.344;2022-10-16T07:03:41;19.93;;;13.73;;
12482;SDS011;6306;47.134;15.344;2022-10-16T07:06:08;19.17;;;13.30;;
12482;SDS011;6306;47.134;15.344;2022-10-16T07:08:35;24.20;;;13.83;;
12482;SDS011;6306;47.134;15.344;2022-10-16T07:11:02;30.30;;;15.90;;
12482;SDS011;6306;47.134;15.344;2022-10-16T07:13:29;23.70;;;16.40;;
12482;SDS011;6306;47.134;15.344;2022-10-16T07:15:55;24.73;;;15.47;;
12482;SDS011;6306;47.134;15.344;2022-10-16T07:18:21;24.77;;;13.60;;
12482;SDS011;6306;47.134;15.344;2022-10-16T07:20:51;20.60;;;14.00;;
12482;SDS011;6306;47.134;15.344;2022-10-16T07:23:17;26.00;;;16.67;;
12482;SDS011;6306;47.134;15.344;2022-10-16T07:25:43;32.07;;;17.13;;
12482;SDS011;6306;47.134;15.344;2022-10-16T07:28:09;25.50;;;16.10;;
12482;SDS011;6306;47.134;15.344;2022-10-16T07:30:35;24.60;;;16.47;;
12482;SDS011;6306;47.134;15.344;2022-10-16T07:33:02;23.57;;;17.20;;
12482;SDS011;6306;47.134;15.344;2022-10-16T07:35:28;27.13;;;15.33;;
12482;SDS011;6306;47.134;15.344;2022-10-16T07:37:54;24.63;;;16.67;;
12482;SDS011;6306;47.134;15.344;2022-10-16T07:40:20;20.97;;;14.97;;
12482;SDS011;6306;47.134;15.344;2022-10-16T07:42:46;24.17;;;14.87;;
12482;SDS011;6306;47.134;15.344;2022-10-16T07:45:12;20.90;;;14.73;;
12482;SDS011;6306;47.134;15.344;2022-10-16T07:47:38;21.73;;;14.33;;
12482;SDS011;6306;47.134;15.344;2022-10-16T07:50:04;22.90;;;15.40;;
12482;SDS011;6306;47.134;15.344;2022-10-16T07:52:30;28.07;;;16.80;;
12482;SDS011;6306;47.134;15.344;2022-10-16T07:54:56;24.37;;;16.10;;
12482;SDS011;6306;47.134;15.344;2022-10-16T07:57:22;28.63;;;15.17;;
12482;SDS011;6306;47.134;15.344;2022-10-16T07:59:48;21.20;;;13.53;;
12482;SDS011;6306;47.134;15.344;2022-10-16T08:02:14;19.87;;;12.90;;
12482;SDS011;6306;47.134;15.344;2022-10-16T08:04:40;20.73;;;13.60;;
12482;SDS011;6306;47.134;15.344;2022-10-16T08:07:07;16.80;;;11.80;;
12482;SDS011;6306;47.134;15.344;2022-10-16T08:09:33;20.10;;;13.73;;
12482;SDS011;6306;47.134;15.344;2022-10-16T08:11:59;17.77;;;12.93;;
12482;SDS011;6306;47.134;15.344;2022-10-16T08:14:25;17.53;;;11.97;;
12482;SDS011;6306;47.134;15.344;2022-10-16T08:16:51;19.63;;;12.53;;
12482;SDS011;6306;47.134;15.344;2022-10-16T08:19:18;19.10;;;11.97;;
12482;SDS011;6306;47.134;15.344;2022-10-16T08:21:46;16.90;;;12.07;;
12482;SDS011;6306;47.134;15.344;2022-10-16T08:24:13;17.20;;;12.53;;
12482;SDS011;6306;47.134;15.344;2022-10-16T08:26:39;18.30;;;11.97;;
12482;SDS011;6306;47.134;15.344;2022-10-16T08:29:05;18.43;;;12.73;;
12482;SDS011;6306;47.134;15.344;2022-10-16T08:31:31;18.10;;;11.90;;
12482;SDS011;6306;47.134;15.344;2022-10-16T08:33:57;18.50;;;12.57;;
12482;SDS011;6306;47.134;15.344;2022-10-16T08:36:23;21.73;;;12.90;;
12482;SDS011;6306;47.134;15.344;2022-10-16T08:38:49;17.57;;;12.43;;
12482;SDS011;6306;47.134;15.344;2022-10-16T08:49:09;18.53;;;12.17;;
12482;SDS011;6306;47.134;15.344;2022-10-16T08:51:37;19.93;;;11.60;;
12482;SDS011;6306;47.134;15.344;2022-10-16T08:54:04;17.37;;;12.00;;
12482;SDS011;6306;47.134;15.344;2022-10-16T08:56:31;15.67;;;12.00;;
12482;SDS011;6306;47.134;15.344;2022-10-16T08:58:58;17.93;;;12.10;;
12482;SDS011;6306;47.134;15.344;2022-10-16T09:01:29;21.40;;;13.00;;
12482;SDS011;6306;47.134;15.344;2022-10-16T09:06:39;16.90;;;11.23;;
12482;SDS011;6306;47.134;15.344;2022-10-16T09:11:48;18.87;;;12.27;;
12482;SDS011;6306;47.134;15.344;2022-10-16T09:19:52;17.50;;;11.03;;
12482;SDS011;6306;47.134;15.344;2022-10-16T09:22:19;16.97;;;12.07;;
12482;SDS011;6306;47.134;15.344;2022-10-16T09:24:46;16.40;;;9.90;;
12482;SDS011;6306;47.134;15.344;2022-10-16T09:27:13;16.30;;;11.20;;
12482;SDS011;6306;47.134;15.344;2022-10-16T09:29:40;29.43;;;12.03;;
12482;SDS011;6306;47.134;15.344;2022-10-16T09:32:13;15.60;;;10.93;;
12482;SDS011;6306;47.134;15.344;2022-10-16T09:34:50;16.03;;;11.60;;
12482;SDS011;6306;47.134;15.344;2022-10-16T09:37:18;16.00;;;11.47;;
12482;SDS011;6306;47.134;15.344;2022-10-16T09:39:45;16.50;;;10.93;;
12482;SDS011;6306;47.134;15.344;2022-10-16T09:42:16;15.70;;;11.30;;
12482;SDS011;6306;47.134;15.344;2022-10-16T09:44:42;15.30;;;11.20;;
12482;SDS011;6306;47.134;15.344;2022-10-16T09:47:14;16.53;;;11.80;;
12482;SDS011;6306;47.134;15.344;2022-10-16T09:50:02;20.30;;;12.00;;
12482;SDS011;6306;47.134;15.344;2022-10-16T09:52:31;15.13;;;11.20;;
12482;SDS011;6306;47.134;15.344;2022-10-16T09:54:57;17.53;;;12.03;;
12482;SDS011;6306;47.134;15.344;2022-10-16T09:57:24;16.90;;;11.20;;
12482;SDS011;6306;47.134;15.344;2022-10-16T09:59:51;17.67;;;12.33;;
12482;SDS011;6306;47.134;15.344;2022-10-16T10:02:18;16.20;;;10.23;;
12482;SDS011;6306;47.134;15.344;2022-10-16T10:04:49;18.17;;;11.67;;
12482;SDS011;6306;47.134;15.344;2022-10-16T10:09:51;16.03;;;9.07;;
12482;SDS011;6306;47.134;15.344;2022-10-16T10:12:24;14.10;;;9.53;;
12482;SDS011;6306;47.134;15.344;2022-10-16T10:14:51;13.60;;;9.37;;
12482;SDS011;6306;47.134;15.344;2022-10-16T10:17:19;13.57;;;10.20;;
12482;SDS011;6306;47.134;15.344;2022-10-16T10:19:49;16.63;;;10.97;;
12482;SDS011;6306;47.134;15.344;2022-10-16T10:22:17;14.00;;;9.60;;
12482;SDS011;6306;47.134;15.344;2022-10-16T10:27:29;18.80;;;10.80;;
12482;SDS011;6306;47.134;15.344;2022-10-16T10:38:10;12.80;;;8.97;;
12482;SDS011;6306;47.134;15.344;2022-10-16T10:43:17;9.40;;;8.23;;
12482;SDS011;6306;47.134;15.344;2022-10-16T10:45:50;13.57;;;9.20;;
12482;SDS011;6306;47.134;15.344;2022-10-16T10:48:38;11.77;;;8.80;;
12482;SDS011;6306;47.134;15.344;2022-10-16T10:51:11;16.80;;;10.27;;
12482;SDS011;6306;47.134;15.344;2022-10-16T11:06:48;14.60;;;11.60;;
12482;SDS011;6306;47.134;15.344;2022-10-16T11:09:24;18.73;;;14.47;;
12482;SDS011;6306;47.134;15.344;2022-10-16T11:11:53;16.00;;;12.23;;
12482;SDS011;6306;47.134;15.344;2022-10-16T11:14:28;18.50;;;13.50;;
12482;SDS011;6306;47.134;15.344;2022-10-16T11:16:58;14.97;;;12.97;;
12482;SDS011;6306;47.134;15.344;2022-10-16T11:19:43;15.93;;;12.93;;
12482;SDS011;6306;47.134;15.344;2022-10-16T11:22:18;15.90;;;12.80;;
12482;SDS011;6306;47.134;15.344;2022-10-16T11:24:46;14.03;;;12.53;;
12482;SDS011;6306;47.134;15.344;2022-10-16T11:27:15;16.37;;;12.00;;
12482;SDS011;6306;47.134;15.344;2022-10-16T11:33:00;15.17;;;10.93;;
12482;SDS011;6306;47.134;15.344;2022-10-16T11:35:25;13.90;;;8.90;;
12482;SDS011;6306;47.134;15.344;2022-10-16T11:37:56;12.50;;;9.53;;
12482;SDS011;6306;47.134;15.344;2022-10-16T11:40:33;12.30;;;10.13;;
12482;SDS011;6306;47.134;15.344;2022-10-16T11:43:06;13.00;;;9.77;;
12482;SDS011;6306;47.134;15.344;2022-10-16T11:45:38;13.53;;;10.33;;
12482;SDS011;6306;47.134;15.344;2022-10-16T11:48:08;14.43;;;10.80;;
12482;SDS011;6306;47.134;15.344;2022-10-16T11:50:39;11.40;;;9.80;;
12482;SDS011;6306;47.134;15.344;2022-10-16T11:55:36;14.90;;;11.17;;
12482;SDS011;6306;47.134;15.344;2022-10-16T11:58:12;11.83;;;9.87;;
12482;SDS011;6306;47.134;15.344;2022-10-16T12:00:41;12.60;;;10.13;;
12482;SDS011;6306;47.134;15.344;2022-10-16T12:03:20;11.50;;;9.47;;
12482;SDS011;6306;47.134;15.344;2022-10-16T12:08:33;13.30;;;10.23;;
12482;SDS011;6306;47.134;15.344;2022-10-16T12:11:06;14.97;;;11.83;;
12482;SDS011;6306;47.134;15.344;2022-10-16T12:18:37;15.60;;;12.30;;
12482;SDS011;6306;47.134;15.344;2022-10-16T12:21:04;16.90;;;12.90;;
12482;SDS011;6306;47.134;15.344;2022-10-16T12:23:38;17.30;;;13.53;;
12482;SDS011;6306;47.134;15.344;2022-10-16T12:26:12;18.80;;;12.63;;
12482;SDS011;6306;47.134;15.344;2022-10-16T12:28:38;14.70;;;10.70;;
12482;SDS011;6306;47.134;15.344;2022-10-16T12:31:06;14.53;;;11.87;;
12482;SDS011;6306;47.134;15.344;2022-10-16T12:33:34;18.37;;;12.90;;
12482;SDS011;6306;47.134;15.344;2022-10-16T12:36:02;18.20;;;12.40;;
12482;SDS011;6306;47.134;15.344;2022-10-16T12:38:47;17.63;;;12.90;;
12482;SDS011;6306;47.134;15.344;2022-10-16T12:41:23;14.93;;;11.97;;
12482;SDS011;6306;47.134;15.344;2022-10-16T12:43:49;16.70;;;13.23;;
12482;SDS011;6306;47.134;15.344;2022-10-16T12:48:42;15.50;;;13.00;;
12482;SDS011;6306;47.134;15.344;2022-10-16T12:51:21;14.23;;;12.03;;
12482;SDS011;6306;47.134;15.344;2022-10-16T12:54:34;16.93;;;13.30;;
12482;SDS011;6306;47.134;15.344;2022-10-16T13:07:33;13.23;;;10.47;;
12482;SDS011;6306;47.134;15.344;2022-10-16T13:10:06;14.27;;;11.67;;
12482;SDS011;6306;47.134;15.344;2022-10-16T13:15:27;14.27;;;11.10;;
12482;SDS011;6306;47.134;15.344;2022-10-16T13:20:23;15.43;;;10.10;;
12482;SDS011;6306;47.134;15.344;2022-10-16T13:22:56;16.80;;;11.50;;
12482;SDS011;6306;47.134;15.344;2022-10-16T13:25:27;17.97;;;10.80;;
12482;SDS011;6306;47.134;15.344;2022-10-16T13:27:59;13.17;;;10.27;;
12482;SDS011;6306;47.134;15.344;2022-10-16T13:33:06;17.80;;;13.17;;
12482;SDS011;6306;47.134;15.344;2022-10-16T13:35:34;11.50;;;9.50;;
12482;SDS011;6306;47.134;15.344;2022-10-16T13:38:15;16.50;;;11.20;;
12482;SDS011;6306;47.134;15.344;2022-10-16T13:43:19;11.83;;;10.37;;
12482;SDS011;6306;47.134;15.344;2022-10-16T13:45:53;17.07;;;10.90;;
12482;SDS011;6306;47.134;15.344;2022-10-16T13:48:19;15.03;;;11.27;;
12482;SDS011;6306;47.134;15.344;2022-10-16T13:50:45;11.33;;;9.90;;
12482;SDS011;6306;47.134;15.344;2022-10-16T13:53:14;14.60;;;12.23;;
12482;SDS011;6306;47.134;15.344;2022-10-16T13:55:40;14.20;;;11.30;;
12482;SDS011;6306;47.134;15.344;2022-10-16T13:58:12;12.63;;;10.33;;
12482;SDS011;6306;47.134;15.344;2022-10-16T14:00:38;12.53;;;10.20;;
12482;SDS011;6306;47.134;15.344;2022-10-16T14:03:06;12.63;;;10.90;;
12482;SDS011;6306;47.134;15.344;2022-10-16T14:05:33;12.00;;;10.47;;
12482;SDS011;6306;47.134;15.344;2022-10-16T14:07:59;12.00;;;10.80;;
12482;SDS011;6306;47.134;15.344;2022-10-16T14:10:27;17.27;;;12.40;;
12482;SDS011;6306;47.134;15.344;2022-10-16T14:13:02;12.97;;;10.33;;
12482;SDS011;6306;47.134;15.344;2022-10-16T14:15:29;15.00;;;12.00;;
12482;SDS011;6306;47.134;15.344;2022-10-16T14:17:55;15.40;;;12.10;;
12482;SDS011;6306;47.134;15.344;2022-10-16T14:20:24;14.83;;;10.67;;
12482;SDS011;6306;47.134;15.344;2022-10-16T14:22:57;16.10;;;11.93;;
12482;SDS011;6306;47.134;15.344;2022-10-16T14:25:25;13.13;;;11.47;;
12482;SDS011;6306;47.134;15.344;2022-10-16T14:30:27;13.93;;;11.63;;
12482;SDS011;6306;47.134;15.344;2022-10-16T14:33:00;15.47;;;11.53;;
12482;SDS011;6306;47.134;15.344;2022-10-16T14:35:30;17.60;;;11.53;;
12482;SDS011;6306;47.134;15.344;2022-10-16T14:37:57;11.77;;;10.53;;
12482;SDS011;6306;47.134;15.344;2022-10-16T14:40:28;23.13;;;11.73;;
12482;SDS011;6306;47.134;15.344;2022-10-16T14:42:54;13.83;;;10.90;;
12482;SDS011;6306;47.134;15.344;2022-10-16T14:45:21;15.57;;;12.30;;
12482;SDS011;6306;47.134;15.344;2022-10-16T14:47:49;15.33;;;12.27;;
12482;SDS011;6306;47.134;15.344;2022-10-16T14:50:15;15.70;;;11.93;;
12482;SDS011;6306;47.134;15.344;2022-10-16T14:52:41;14.90;;;12.17;;
12482;SDS011;6306;47.134;15.344;2022-10-16T14:55:08;16.30;;;12.80;;
12482;SDS011;6306;47.134;15.344;2022-10-16T14:57:34;13.53;;;12.07;;
12482;SDS011;6306;47.134;15.344;2022-10-16T15:00:02;15.87;;;12.80;;
12482;SDS011;6306;47.134;15.344;2022-10-16T15:02:29;16.70;;;12.20;;
12482;SDS011;6306;47.134;15.344;2022-10-16T15:04:56;16.77;;;11.87;;
12482;SDS011;6306;47.134;15.344;2022-10-16T15:07:22;16.27;;;11.90;;
12482;SDS011;6306;47.134;15.344;2022-10-16T15:09:48;15.63;;;12.77;;
12482;SDS011;6306;47.134;15.344;2022-10-16T15:12:15;21.77;;;14.30;;
12482;SDS011;6306;47.134;15.344;2022-10-16T15:14:41;14.17;;;11.13;;
12482;SDS011;6306;47.134;15.344;2022-10-16T15:17:08;14.50;;;11.50;;
12482;SDS011;6306;47.134;15.344;2022-10-16T15:19:35;13.40;;;11.80;;
12482;SDS011;6306;47.134;15.344;2022-10-16T15:22:01;20.00;;;12.33;;
12482;SDS011;6306;47.134;15.344;2022-10-16T15:24:27;19.07;;;13.70;;
12482;SDS011;6306;47.134;15.344;2022-10-16T15:26:53;15.73;;;13.33;;
12482;SDS011;6306;47.134;15.344;2022-10-16T15:29:19;16.13;;;13.30;;
12482;SDS011;6306;47.134;15.344;2022-10-16T15:31:45;15.50;;;12.10;;
12482;SDS011;6306;47.134;15.344;2022-10-16T15:34:12;17.67;;;13.70;;
12482;SDS011;6306;47.134;15.344;2022-10-16T15:36:39;19.43;;;14.37;;
12482;SDS011;6306;47.134;15.344;2022-10-16T15:39:15;16.73;;;12.50;;
12482;SDS011;6306;47.134;15.344;2022-10-16T15:41:41;14.83;;;13.30;;
12482;SDS011;6306;47.134;15.344;2022-10-16T15:44:08;17.43;;;13.77;;
12482;SDS011;6306;47.134;15.344;2022-10-16T15:46:34;19.00;;;14.10;;
12482;SDS011;6306;47.134;15.344;2022-10-16T15:49:02;15.83;;;12.63;;
12482;SDS011;6306;47.134;15.344;2022-10-16T15:51:28;16.40;;;13.80;;
12482;SDS011;6306;47.134;15.344;2022-10-16T15:53:57;18.57;;;14.43;;
12482;SDS011;6306;47.134;15.344;2022-10-16T15:56:24;15.40;;;12.37;;
12482;SDS011;6306;47.134;15.344;2022-10-16T15:58:50;16.50;;;12.53;;
12482;SDS011;6306;47.134;15.344;2022-10-16T16:01:16;19.40;;;14.40;;
12482;SDS011;6306;47.134;15.344;2022-10-16T16:03:42;17.63;;;13.50;;
12482;SDS011;6306;47.134;15.344;2022-10-16T16:06:10;19.73;;;12.70;;
12482;SDS011;6306;47.134;15.344;2022-10-16T16:08:37;16.20;;;13.10;;
12482;SDS011;6306;47.134;15.344;2022-10-16T16:11:07;20.37;;;13.33;;
12482;SDS011;6306;47.134;15.344;2022-10-16T16:13:34;14.30;;;12.80;;
12482;SDS011;6306;47.134;15.344;2022-10-16T16:16:04;25.73;;;14.10;;